sensor_id;sensor_type;location;lat;lon;timestamp;P1;durP1;ratioP1;P2;durP2;ratioP2
37065;SDS011;22981;43.080;25.550;2023-01-16T00:01:51;33.05;;;25.23;;
37065;SDS011;22981;43.080;25.550;2023-01-16T00:04:19;39.15;;;29.07;;
37065;SDS011;22981;43.080;25.550;2023-01-16T00:06:47;31.97;;;24.67;;
37065;SDS011;22981;43.080;25.550;2023-01-16T00:09:14;33.53;;;24.60;;
37065;SDS011;22981;43.080;25.550;2023-01-16T00:11:42;34.25;;;24.63;;
37065;SDS011;22981;43.080;25.550;2023-01-16T00:14:10;34.08;;;26.95;;
37065;SDS011;22981;43.080;25.550;2023-01-16T00:16:37;32.67;;;24.70;;
37065;SDS011;22981;43.080;25.550;2023-01-16T00:19:05;46.83;;;31.77;;
37065;SDS011;22981;43.080;25.550;2023-01-16T00:21:32;57.45;;;36.53;;
37065;SDS011;22981;43.080;25.550;2023-01-16T00:24:00;123.13;;;63.92;;
37065;SDS011;22981;43.080;25.550;2023-01-16T00:26:28;114.65;;;59.83;;
37065;SDS011;22981;43.080;25.550;2023-01-16T00:28:55;110.95;;;57.48;;
37065;SDS011;22981;43.080;25.550;2023-01-16T00:31:23;72.15;;;40.85;;
37065;SDS011;22981;43.080;25.550;2023-01-16T00:33:53;72.72;;;41.95;;
37065;SDS011;22981;43.080;25.550;2023-01-16T00:36:21;58.45;;;33.88;;
37065;SDS011;22981;43.080;25.550;2023-01-16T00:38:48;84.92;;;44.48;;
37065;SDS011;22981;43.080;25.550;2023-01-16T00:41:16;32.03;;;22.80;;
37065;SDS011;22981;43.080;25.550;2023-01-16T00:43:44;35.05;;;23.62;;
37065;SDS011;22981;43.080;25.550;2023-01-16T00:46:11;41.58;;;26.15;;
37065;SDS011;22981;43.080;25.550;2023-01-16T00:48:39;38.23;;;25.50;;
37065;SDS011;22981;43.080;25.550;2023-01-16T00:51:06;55.03;;;32.05;;
37065;SDS011;22981;43.080;25.550;2023-01-16T00:53:34;53.28;;;32.00;;
37065;SDS011;22981;43.080;25.550;2023-01-16T00:56:01;44.90;;;28.65;;
37065;SDS011;22981;43.080;25.550;2023-01-16T00:58:29;33.40;;;20.50;;
37065;SDS011;22981;43.080;25.550;2023-01-16T01:00:57;18.40;;;14.50;;
37065;SDS011;22981;43.080;25.550;2023-01-16T01:03:26;21.70;;;15.20;;
37065;SDS011;22981;43.080;25.550;2023-01-16T01:05:56;19.70;;;13.53;;
37065;SDS011;22981;43.080;25.550;2023-01-16T01:08:24;18.65;;;14.10;;
37065;SDS011;22981;43.080;25.550;2023-01-16T01:10:51;47.83;;;27.98;;
37065;SDS011;22981;43.080;25.550;2023-01-16T01:13:19;49.88;;;28.95;;
37065;SDS011;22981;43.080;25.550;2023-01-16T01:15:46;56.45;;;33.30;;
37065;SDS011;22981;43.080;25.550;2023-01-16T01:18:14;71.90;;;47.20;;
37065;SDS011;22981;43.080;25.550;2023-01-16T01:20:41;113.22;;;74.82;;
37065;SDS011;22981;43.080;25.550;2023-01-16T01:23:09;72.67;;;46.42;;
37065;SDS011;22981;43.080;25.550;2023-01-16T01:25:37;40.05;;;27.55;;
37065;SDS011;22981;43.080;25.550;2023-01-16T01:28:04;67.65;;;48.30;;
37065;SDS011;22981;43.080;25.550;2023-01-16T01:30:32;31.73;;;23.38;;
37065;SDS011;22981;43.080;25.550;2023-01-16T01:33:00;38.98;;;28.47;;
37065;SDS011;22981;43.080;25.550;2023-01-16T01:35:27;48.95;;;35.83;;
37065;SDS011;22981;43.080;25.550;2023-01-16T01:37:55;50.15;;;34.18;;
37065;SDS011;22981;43.080;25.550;2023-01-16T01:40:22;54.75;;;37.95;;
37065;SDS011;22981;43.080;25.550;2023-01-16T01:42:50;48.83;;;34.15;;
37065;SDS011;22981;43.080;25.550;2023-01-16T01:45:22;47.20;;;34.70;;
37065;SDS011;22981;43.080;25.550;2023-01-16T01:48:02;48.17;;;32.83;;
37065;SDS011;22981;43.080;25.550;2023-01-16T01:53:23;34.88;;;26.52;;
37065;SDS011;22981;43.080;25.550;2023-01-16T01:55:54;29.40;;;22.25;;
37065;SDS011;22981;43.080;25.550;2023-01-16T01:58:24;29.82;;;24.50;;
37065;SDS011;22981;43.080;25.550;2023-01-16T02:00:55;32.38;;;26.27;;
37065;SDS011;22981;43.080;25.550;2023-01-16T02:03:26;33.60;;;27.27;;
37065;SDS011;22981;43.080;25.550;2023-01-16T02:06:00;34.30;;;27.37;;
37065;SDS011;22981;43.080;25.550;2023-01-16T02:08:31;32.50;;;25.43;;
37065;SDS011;22981;43.080;25.550;2023-01-16T02:11:07;31.95;;;23.67;;
37065;SDS011;22981;43.080;25.550;2023-01-16T02:13:38;32.45;;;25.02;;
37065;SDS011;22981;43.080;25.550;2023-01-16T02:16:06;34.33;;;26.35;;
37065;SDS011;22981;43.080;25.550;2023-01-16T02:18:51;32.10;;;23.47;;
37065;SDS011;22981;43.080;25.550;2023-01-16T02:26:53;73.45;;;48.68;;
37065;SDS011;22981;43.080;25.550;2023-01-16T02:32:40;36.08;;;25.80;;
37065;SDS011;22981;43.080;25.550;2023-01-16T02:40:43;27.60;;;19.85;;
37065;SDS011;22981;43.080;25.550;2023-01-16T02:46:05;27.25;;;19.70;;
37065;SDS011;22981;43.080;25.550;2023-01-16T02:51:47;27.17;;;18.80;;
37065;SDS011;22981;43.080;25.550;2023-01-16T02:54:27;22.75;;;17.00;;
37065;SDS011;22981;43.080;25.550;2023-01-16T02:57:06;22.10;;;17.50;;
37065;SDS011;22981;43.080;25.550;2023-01-16T02:59:34;18.60;;;14.45;;
37065;SDS011;22981;43.080;25.550;2023-01-16T03:02:02;21.23;;;16.75;;
37065;SDS011;22981;43.080;25.550;2023-01-16T03:07:21;20.08;;;14.68;;
37065;SDS011;22981;43.080;25.550;2023-01-16T03:23:52;29.35;;;21.02;;
37065;SDS011;22981;43.080;25.550;2023-01-16T03:26:26;25.45;;;19.52;;
37065;SDS011;22981;43.080;25.550;2023-01-16T03:29:01;31.17;;;22.62;;
37065;SDS011;22981;43.080;25.550;2023-01-16T03:31:37;34.43;;;25.48;;
37065;SDS011;22981;43.080;25.550;2023-01-16T03:37:02;30.32;;;22.48;;
37065;SDS011;22981;43.080;25.550;2023-01-16T03:39:43;30.25;;;22.13;;
37065;SDS011;22981;43.080;25.550;2023-01-16T03:42:16;27.62;;;20.60;;
37065;SDS011;22981;43.080;25.550;2023-01-16T03:44:54;27.75;;;20.75;;
37065;SDS011;22981;43.080;25.550;2023-01-16T03:47:25;27.27;;;20.90;;
37065;SDS011;22981;43.080;25.550;2023-01-16T03:49:55;52.10;;;32.93;;
37065;SDS011;22981;43.080;25.550;2023-01-16T03:52:25;31.70;;;22.45;;
37065;SDS011;22981;43.080;25.550;2023-01-16T03:55:04;34.33;;;23.75;;
37065;SDS011;22981;43.080;25.550;2023-01-16T03:57:39;29.40;;;21.77;;
37065;SDS011;22981;43.080;25.550;2023-01-16T04:00:05;30.25;;;22.22;;
37065;SDS011;22981;43.080;25.550;2023-01-16T04:02:44;27.17;;;20.23;;
37065;SDS011;22981;43.080;25.550;2023-01-16T04:05:22;25.35;;;19.55;;
37065;SDS011;22981;43.080;25.550;2023-01-16T04:07:48;27.50;;;20.52;;
37065;SDS011;22981;43.080;25.550;2023-01-16T04:10:36;33.80;;;23.98;;
37065;SDS011;22981;43.080;25.550;2023-01-16T04:13:09;33.00;;;24.18;;
37065;SDS011;22981;43.080;25.550;2023-01-16T04:15:41;32.50;;;23.98;;
37065;SDS011;22981;43.080;25.550;2023-01-16T04:18:12;36.60;;;25.48;;
37065;SDS011;22981;43.080;25.550;2023-01-16T04:20:41;40.43;;;28.35;;
37065;SDS011;22981;43.080;25.550;2023-01-16T04:23:11;47.45;;;33.65;;
37065;SDS011;22981;43.080;25.550;2023-01-16T04:25:41;49.10;;;34.40;;
37065;SDS011;22981;43.080;25.550;2023-01-16T04:28:10;72.05;;;47.53;;
37065;SDS011;22981;43.080;25.550;2023-01-16T04:30:38;81.70;;;52.48;;
37065;SDS011;22981;43.080;25.550;2023-01-16T04:33:06;91.65;;;58.85;;
37065;SDS011;22981;43.080;25.550;2023-01-16T04:35:34;81.80;;;52.80;;
37065;SDS011;22981;43.080;25.550;2023-01-16T04:38:01;79.03;;;49.58;;
37065;SDS011;22981;43.080;25.550;2023-01-16T04:40:29;75.72;;;50.43;;
37065;SDS011;22981;43.080;25.550;2023-01-16T04:42:57;74.58;;;47.65;;
37065;SDS011;22981;43.080;25.550;2023-01-16T04:45:24;67.10;;;43.63;;
37065;SDS011;22981;43.080;25.550;2023-01-16T04:47:52;182.02;;;78.97;;
37065;SDS011;22981;43.080;25.550;2023-01-16T04:50:19;244.30;;;97.78;;
37065;SDS011;22981;43.080;25.550;2023-01-16T04:52:47;135.25;;;61.98;;
37065;SDS011;22981;43.080;25.550;2023-01-16T04:55:15;69.15;;;37.10;;
37065;SDS011;22981;43.080;25.550;2023-01-16T04:57:42;49.33;;;29.70;;
37065;SDS011;22981;43.080;25.550;2023-01-16T05:00:10;61.37;;;37.58;;
37065;SDS011;22981;43.080;25.550;2023-01-16T05:02:38;46.05;;;33.45;;
37065;SDS011;22981;43.080;25.550;2023-01-16T05:05:06;91.67;;;60.10;;
37065;SDS011;22981;43.080;25.550;2023-01-16T05:07:33;90.42;;;52.70;;
37065;SDS011;22981;43.080;25.550;2023-01-16T05:10:01;66.42;;;41.50;;
37065;SDS011;22981;43.080;25.550;2023-01-16T05:12:29;68.37;;;46.73;;
37065;SDS011;22981;43.080;25.550;2023-01-16T05:14:57;73.28;;;51.28;;
37065;SDS011;22981;43.080;25.550;2023-01-16T05:17:24;87.40;;;58.23;;
37065;SDS011;22981;43.080;25.550;2023-01-16T05:19:52;84.37;;;56.48;;
37065;SDS011;22981;43.080;25.550;2023-01-16T05:22:20;63.17;;;42.27;;
37065;SDS011;22981;43.080;25.550;2023-01-16T05:24:47;47.75;;;35.03;;
37065;SDS011;22981;43.080;25.550;2023-01-16T05:27:15;44.15;;;29.57;;
37065;SDS011;22981;43.080;25.550;2023-01-16T05:29:42;36.45;;;26.52;;
37065;SDS011;22981;43.080;25.550;2023-01-16T05:32:10;27.98;;;20.15;;
37065;SDS011;22981;43.080;25.550;2023-01-16T05:34:37;29.30;;;21.45;;
37065;SDS011;22981;43.080;25.550;2023-01-16T05:37:05;32.40;;;22.98;;
37065;SDS011;22981;43.080;25.550;2023-01-16T05:39:32;38.58;;;25.25;;
37065;SDS011;22981;43.080;25.550;2023-01-16T05:42:00;39.98;;;27.02;;
37065;SDS011;22981;43.080;25.550;2023-01-16T05:44:28;44.75;;;30.92;;
37065;SDS011;22981;43.080;25.550;2023-01-16T05:46:55;34.43;;;25.40;;
37065;SDS011;22981;43.080;25.550;2023-01-16T05:49:23;42.08;;;27.45;;
37065;SDS011;22981;43.080;25.550;2023-01-16T05:51:50;45.17;;;31.82;;
37065;SDS011;22981;43.080;25.550;2023-01-16T05:54:18;45.12;;;30.43;;
37065;SDS011;22981;43.080;25.550;2023-01-16T05:56:45;38.60;;;28.05;;
37065;SDS011;22981;43.080;25.550;2023-01-16T05:59:13;38.58;;;28.85;;
37065;SDS011;22981;43.080;25.550;2023-01-16T06:01:40;38.85;;;29.80;;
37065;SDS011;22981;43.080;25.550;2023-01-16T06:04:08;35.43;;;27.10;;
37065;SDS011;22981;43.080;25.550;2023-01-16T06:06:35;23.85;;;18.25;;
37065;SDS011;22981;43.080;25.550;2023-01-16T06:09:03;24.67;;;17.92;;
37065;SDS011;22981;43.080;25.550;2023-01-16T06:11:31;31.65;;;23.87;;
37065;SDS011;22981;43.080;25.550;2023-01-16T06:13:58;36.65;;;26.50;;
37065;SDS011;22981;43.080;25.550;2023-01-16T06:16:27;137.57;;;79.42;;
37065;SDS011;22981;43.080;25.550;2023-01-16T06:18:55;42.30;;;28.50;;
37065;SDS011;22981;43.080;25.550;2023-01-16T06:21:23;40.98;;;31.15;;
37065;SDS011;22981;43.080;25.550;2023-01-16T06:23:50;32.28;;;23.52;;
37065;SDS011;22981;43.080;25.550;2023-01-16T06:26:18;34.20;;;23.62;;
37065;SDS011;22981;43.080;25.550;2023-01-16T06:28:46;35.65;;;27.95;;
37065;SDS011;22981;43.080;25.550;2023-01-16T06:31:13;30.50;;;23.15;;
37065;SDS011;22981;43.080;25.550;2023-01-16T06:33:41;33.42;;;23.83;;
37065;SDS011;22981;43.080;25.550;2023-01-16T06:36:08;43.75;;;32.25;;
37065;SDS011;22981;43.080;25.550;2023-01-16T06:38:36;48.23;;;36.65;;
37065;SDS011;22981;43.080;25.550;2023-01-16T06:41:03;37.67;;;28.67;;
37065;SDS011;22981;43.080;25.550;2023-01-16T06:43:31;40.73;;;31.42;;
37065;SDS011;22981;43.080;25.550;2023-01-16T06:45:58;36.68;;;27.52;;
37065;SDS011;22981;43.080;25.550;2023-01-16T06:48:26;28.83;;;23.57;;
37065;SDS011;22981;43.080;25.550;2023-01-16T06:50:54;29.35;;;23.57;;
37065;SDS011;22981;43.080;25.550;2023-01-16T06:53:21;33.05;;;22.70;;
37065;SDS011;22981;43.080;25.550;2023-01-16T06:55:49;30.85;;;22.00;;
37065;SDS011;22981;43.080;25.550;2023-01-16T06:58:16;25.48;;;18.65;;
37065;SDS011;22981;43.080;25.550;2023-01-16T07:00:44;23.02;;;18.23;;
37065;SDS011;22981;43.080;25.550;2023-01-16T07:03:14;24.55;;;18.62;;
37065;SDS011;22981;43.080;25.550;2023-01-16T07:05:43;29.12;;;20.12;;
37065;SDS011;22981;43.080;25.550;2023-01-16T07:08:11;31.15;;;23.20;;
37065;SDS011;22981;43.080;25.550;2023-01-16T07:10:39;59.90;;;42.60;;
37065;SDS011;22981;43.080;25.550;2023-01-16T07:13:07;51.60;;;36.83;;
37065;SDS011;22981;43.080;25.550;2023-01-16T07:15:38;44.95;;;32.63;;
37065;SDS011;22981;43.080;25.550;2023-01-16T07:18:25;42.05;;;29.75;;
37065;SDS011;22981;43.080;25.550;2023-01-16T07:21:11;39.13;;;29.67;;
37065;SDS011;22981;43.080;25.550;2023-01-16T07:23:59;40.70;;;31.60;;
37065;SDS011;22981;43.080;25.550;2023-01-16T07:26:33;40.80;;;32.10;;
37065;SDS011;22981;43.080;25.550;2023-01-16T07:29:02;44.00;;;32.00;;
37065;SDS011;22981;43.080;25.550;2023-01-16T07:31:30;36.88;;;29.12;;
37065;SDS011;22981;43.080;25.550;2023-01-16T07:34:00;42.62;;;31.85;;
37065;SDS011;22981;43.080;25.550;2023-01-16T07:36:27;39.50;;;27.77;;
37065;SDS011;22981;43.080;25.550;2023-01-16T07:38:55;36.70;;;27.73;;
37065;SDS011;22981;43.080;25.550;2023-01-16T07:41:23;37.98;;;28.57;;
37065;SDS011;22981;43.080;25.550;2023-01-16T07:43:50;43.10;;;31.07;;
37065;SDS011;22981;43.080;25.550;2023-01-16T07:46:18;46.53;;;34.13;;
37065;SDS011;22981;43.080;25.550;2023-01-16T07:48:46;37.58;;;28.80;;
37065;SDS011;22981;43.080;25.550;2023-01-16T07:51:15;40.98;;;30.82;;
37065;SDS011;22981;43.080;25.550;2023-01-16T07:53:43;40.00;;;28.90;;
37065;SDS011;22981;43.080;25.550;2023-01-16T07:56:11;34.58;;;25.15;;
37065;SDS011;22981;43.080;25.550;2023-01-16T07:58:38;41.15;;;30.75;;
37065;SDS011;22981;43.080;25.550;2023-01-16T08:01:07;40.48;;;31.73;;
37065;SDS011;22981;43.080;25.550;2023-01-16T08:03:36;26.27;;;21.37;;
37065;SDS011;22981;43.080;25.550;2023-01-16T08:06:04;21.23;;;17.02;;
37065;SDS011;22981;43.080;25.550;2023-01-16T08:08:32;20.40;;;15.55;;
37065;SDS011;22981;43.080;25.550;2023-01-16T08:11:00;17.02;;;12.82;;
37065;SDS011;22981;43.080;25.550;2023-01-16T08:13:32;16.65;;;13.43;;
37065;SDS011;22981;43.080;25.550;2023-01-16T08:16:01;16.25;;;14.03;;
37065;SDS011;22981;43.080;25.550;2023-01-16T08:18:28;15.15;;;11.95;;
37065;SDS011;22981;43.080;25.550;2023-01-16T08:20:56;14.28;;;11.57;;
37065;SDS011;22981;43.080;25.550;2023-01-16T08:23:23;13.28;;;11.85;;
37065;SDS011;22981;43.080;25.550;2023-01-16T08:25:51;12.20;;;10.18;;
37065;SDS011;22981;43.080;25.550;2023-01-16T08:28:19;12.05;;;9.43;;
37065;SDS011;22981;43.080;25.550;2023-01-16T08:30:46;11.03;;;9.43;;
37065;SDS011;22981;43.080;25.550;2023-01-16T08:33:14;11.05;;;9.75;;
37065;SDS011;22981;43.080;25.550;2023-01-16T08:35:41;11.25;;;8.80;;
37065;SDS011;22981;43.080;25.550;2023-01-16T08:38:09;10.93;;;8.38;;
37065;SDS011;22981;43.080;25.550;2023-01-16T08:40:36;10.00;;;8.55;;
37065;SDS011;22981;43.080;25.550;2023-01-16T08:43:04;9.65;;;7.97;;
37065;SDS011;22981;43.080;25.550;2023-01-16T08:45:49;12.93;;;9.08;;
37065;SDS011;22981;43.080;25.550;2023-01-16T08:48:33;9.88;;;8.25;;
37065;SDS011;22981;43.080;25.550;2023-01-16T08:51:19;9.95;;;8.53;;
37065;SDS011;22981;43.080;25.550;2023-01-16T08:53:56;8.80;;;7.87;;
37065;SDS011;22981;43.080;25.550;2023-01-16T08:56:22;10.75;;;8.93;;
37065;SDS011;22981;43.080;25.550;2023-01-16T08:58:50;11.68;;;9.83;;
37065;SDS011;22981;43.080;25.550;2023-01-16T09:01:17;8.33;;;7.42;;
37065;SDS011;22981;43.080;25.550;2023-01-16T09:03:45;9.20;;;7.90;;
37065;SDS011;22981;43.080;25.550;2023-01-16T09:06:13;9.50;;;7.58;;
37065;SDS011;22981;43.080;25.550;2023-01-16T09:08:40;9.15;;;8.25;;
37065;SDS011;22981;43.080;25.550;2023-01-16T09:11:08;9.28;;;7.92;;
37065;SDS011;22981;43.080;25.550;2023-01-16T09:13:53;8.00;;;6.80;;
37065;SDS011;22981;43.080;25.550;2023-01-16T09:16:23;20.92;;;16.70;;
37065;SDS011;22981;43.080;25.550;2023-01-16T09:18:51;17.55;;;14.68;;
37065;SDS011;22981;43.080;25.550;2023-01-16T09:21:19;14.05;;;11.20;;
37065;SDS011;22981;43.080;25.550;2023-01-16T09:23:49;14.47;;;10.78;;
37065;SDS011;22981;43.080;25.550;2023-01-16T09:26:17;12.25;;;10.98;;
37065;SDS011;22981;43.080;25.550;2023-01-16T09:28:45;11.18;;;10.00;;
37065;SDS011;22981;43.080;25.550;2023-01-16T09:31:12;9.88;;;7.35;;
37065;SDS011;22981;43.080;25.550;2023-01-16T09:33:40;7.85;;;6.92;;
37065;SDS011;22981;43.080;25.550;2023-01-16T09:36:07;8.85;;;7.80;;
37065;SDS011;22981;43.080;25.550;2023-01-16T09:38:35;7.85;;;6.75;;
37065;SDS011;22981;43.080;25.550;2023-01-16T09:41:03;7.90;;;7.10;;
37065;SDS011;22981;43.080;25.550;2023-01-16T09:43:41;8.68;;;6.80;;
37065;SDS011;22981;43.080;25.550;2023-01-16T09:48:54;14.55;;;11.40;;
37065;SDS011;22981;43.080;25.550;2023-01-16T09:51:26;8.30;;;7.15;;
37065;SDS011;22981;43.080;25.550;2023-01-16T09:53:57;13.45;;;10.03;;
37065;SDS011;22981;43.080;25.550;2023-01-16T09:56:46;7.75;;;6.95;;
37065;SDS011;22981;43.080;25.550;2023-01-16T09:59:37;6.55;;;5.95;;
37065;SDS011;22981;43.080;25.550;2023-01-16T10:02:31;6.53;;;5.67;;
37065;SDS011;22981;43.080;25.550;2023-01-16T10:05:01;6.58;;;5.87;;
37065;SDS011;22981;43.080;25.550;2023-01-16T10:10:22;6.58;;;5.87;;
37065;SDS011;22981;43.080;25.550;2023-01-16T10:15:58;7.90;;;7.10;;
37065;SDS011;22981;43.080;25.550;2023-01-16T10:24:34;10.23;;;6.12;;
37065;SDS011;22981;43.080;25.550;2023-01-16T10:27:34;6.97;;;6.28;;
37065;SDS011;22981;43.080;25.550;2023-01-16T10:33:27;7.85;;;6.50;;
37065;SDS011;22981;43.080;25.550;2023-01-16T10:36:09;7.08;;;6.37;;
37065;SDS011;22981;43.080;25.550;2023-01-16T10:38:40;6.95;;;5.92;;
37065;SDS011;22981;43.080;25.550;2023-01-16T10:44:34;6.20;;;5.60;;
37065;SDS011;22981;43.080;25.550;2023-01-16T10:47:22;15.60;;;6.80;;
37065;SDS011;22981;43.080;25.550;2023-01-16T10:50:09;7.10;;;6.08;;
37065;SDS011;22981;43.080;25.550;2023-01-16T10:52:37;6.53;;;5.65;;
37065;SDS011;22981;43.080;25.550;2023-01-16T10:55:06;6.50;;;5.75;;
37065;SDS011;22981;43.080;25.550;2023-01-16T10:57:37;6.72;;;6.00;;
37065;SDS011;22981;43.080;25.550;2023-01-16T11:00:16;7.08;;;5.87;;
37065;SDS011;22981;43.080;25.550;2023-01-16T11:02:47;5.87;;;5.28;;
37065;SDS011;22981;43.080;25.550;2023-01-16T11:05:24;6.97;;;6.28;;
37065;SDS011;22981;43.080;25.550;2023-01-16T11:08:16;7.25;;;5.25;;
37065;SDS011;22981;43.080;25.550;2023-01-16T11:10:45;7.28;;;6.55;;
37065;SDS011;22981;43.080;25.550;2023-01-16T11:13:14;8.20;;;6.55;;
37065;SDS011;22981;43.080;25.550;2023-01-16T11:16:27;6.45;;;5.80;;
37065;SDS011;22981;43.080;25.550;2023-01-16T11:18:57;6.60;;;5.90;;
37065;SDS011;22981;43.080;25.550;2023-01-16T11:21:31;60.73;;;35.85;;
37065;SDS011;22981;43.080;25.550;2023-01-16T11:24:13;21.40;;;13.72;;
37065;SDS011;22981;43.080;25.550;2023-01-16T11:26:38;8.35;;;6.67;;
37065;SDS011;22981;43.080;25.550;2023-01-16T11:29:08;22.73;;;18.25;;
37065;SDS011;22981;43.080;25.550;2023-01-16T11:31:38;11.40;;;9.48;;
37065;SDS011;22981;43.080;25.550;2023-01-16T11:34:10;11.22;;;9.85;;
37065;SDS011;22981;43.080;25.550;2023-01-16T11:36:36;8.50;;;7.60;;
37065;SDS011;22981;43.080;25.550;2023-01-16T11:39:05;11.53;;;9.90;;
37065;SDS011;22981;43.080;25.550;2023-01-16T11:41:36;12.73;;;9.40;;
37065;SDS011;22981;43.080;25.550;2023-01-16T11:44:15;11.65;;;8.18;;
37065;SDS011;22981;43.080;25.550;2023-01-16T11:47:01;8.45;;;6.75;;
37065;SDS011;22981;43.080;25.550;2023-01-16T11:49:38;13.78;;;10.25;;
37065;SDS011;22981;43.080;25.550;2023-01-16T11:52:13;11.97;;;10.15;;
37065;SDS011;22981;43.080;25.550;2023-01-16T11:54:46;7.67;;;6.87;;
37065;SDS011;22981;43.080;25.550;2023-01-16T12:05:25;8.28;;;7.00;;
37065;SDS011;22981;43.080;25.550;2023-01-16T12:08:21;9.08;;;7.83;;
37065;SDS011;22981;43.080;25.550;2023-01-16T12:14:01;8.23;;;6.72;;
37065;SDS011;22981;43.080;25.550;2023-01-16T12:22:46;13.85;;;10.72;;
37065;SDS011;22981;43.080;25.550;2023-01-16T12:28:22;8.48;;;7.58;;
37065;SDS011;22981;43.080;25.550;2023-01-16T12:30:56;9.08;;;8.10;;
37065;SDS011;22981;43.080;25.550;2023-01-16T12:33:35;9.30;;;7.70;;
37065;SDS011;22981;43.080;25.550;2023-01-16T12:45:00;7.12;;;6.28;;
37065;SDS011;22981;43.080;25.550;2023-01-16T12:47:59;6.90;;;5.90;;
37065;SDS011;22981;43.080;25.550;2023-01-16T12:50:49;7.78;;;6.05;;
37065;SDS011;22981;43.080;25.550;2023-01-16T12:58:50;6.05;;;5.37;;
37065;SDS011;22981;43.080;25.550;2023-01-16T13:01:21;6.47;;;5.33;;
37065;SDS011;22981;43.080;25.550;2023-01-16T13:04:09;7.25;;;5.35;;
37065;SDS011;22981;43.080;25.550;2023-01-16T13:06:50;6.75;;;5.60;;
37065;SDS011;22981;43.080;25.550;2023-01-16T13:09:25;6.92;;;5.35;;
37065;SDS011;22981;43.080;25.550;2023-01-16T13:11:57;5.75;;;5.17;;
37065;SDS011;22981;43.080;25.550;2023-01-16T13:14:44;7.75;;;6.65;;
37065;SDS011;22981;43.080;25.550;2023-01-16T13:17:15;6.42;;;5.75;;
37065;SDS011;22981;43.080;25.550;2023-01-16T13:19:44;8.28;;;6.30;;
37065;SDS011;22981;43.080;25.550;2023-01-16T13:22:20;6.80;;;6.08;;
37065;SDS011;22981;43.080;25.550;2023-01-16T13:30:23;9.05;;;7.55;;
37065;SDS011;22981;43.080;25.550;2023-01-16T13:32:52;7.42;;;6.72;;
37065;SDS011;22981;43.080;25.550;2023-01-16T13:38:19;7.85;;;7.05;;
37065;SDS011;22981;43.080;25.550;2023-01-16T13:40:52;9.00;;;6.50;;
37065;SDS011;22981;43.080;25.550;2023-01-16T13:43:29;8.03;;;6.20;;
37065;SDS011;22981;43.080;25.550;2023-01-16T13:46:15;6.87;;;6.17;;
37065;SDS011;22981;43.080;25.550;2023-01-16T13:48:49;6.78;;;6.00;;
37065;SDS011;22981;43.080;25.550;2023-01-16T13:51:22;7.75;;;5.97;;
37065;SDS011;22981;43.080;25.550;2023-01-16T13:53:51;6.53;;;5.60;;
37065;SDS011;22981;43.080;25.550;2023-01-16T13:56:23;6.75;;;6.05;;
37065;SDS011;22981;43.080;25.550;2023-01-16T13:59:05;6.37;;;5.78;;
37065;SDS011;22981;43.080;25.550;2023-01-16T14:10:04;10.48;;;7.87;;
37065;SDS011;22981;43.080;25.550;2023-01-16T14:12:32;8.58;;;7.67;;
37065;SDS011;22981;43.080;25.550;2023-01-16T14:15:20;11.28;;;8.00;;
37065;SDS011;22981;43.080;25.550;2023-01-16T14:18:14;9.43;;;8.43;;
37065;SDS011;22981;43.080;25.550;2023-01-16T14:23:28;9.60;;;8.60;;
37065;SDS011;22981;43.080;25.550;2023-01-16T14:26:17;7.78;;;6.95;;
37065;SDS011;22981;43.080;25.550;2023-01-16T14:28:47;11.35;;;7.75;;
37065;SDS011;22981;43.080;25.550;2023-01-16T14:31:24;8.90;;;7.92;;
37065;SDS011;22981;43.080;25.550;2023-01-16T14:33:49;8.70;;;7.72;;
37065;SDS011;22981;43.080;25.550;2023-01-16T14:36:19;35.00;;;28.55;;
37065;SDS011;22981;43.080;25.550;2023-01-16T14:38:49;11.08;;;9.55;;
37065;SDS011;22981;43.080;25.550;2023-01-16T14:41:21;9.05;;;8.13;;
37065;SDS011;22981;43.080;25.550;2023-01-16T14:50:09;13.98;;;12.45;;
37065;SDS011;22981;43.080;25.550;2023-01-16T14:56:00;13.80;;;10.75;;
37065;SDS011;22981;43.080;25.550;2023-01-16T15:01:14;11.85;;;9.33;;
37065;SDS011;22981;43.080;25.550;2023-01-16T15:03:40;11.33;;;9.45;;
37065;SDS011;22981;43.080;25.550;2023-01-16T15:06:08;11.38;;;8.85;;
37065;SDS011;22981;43.080;25.550;2023-01-16T15:08:36;10.32;;;8.90;;
37065;SDS011;22981;43.080;25.550;2023-01-16T15:11:12;10.13;;;9.00;;
37065;SDS011;22981;43.080;25.550;2023-01-16T15:14:08;10.45;;;8.78;;
37065;SDS011;22981;43.080;25.550;2023-01-16T15:22:58;9.45;;;8.30;;
37065;SDS011;22981;43.080;25.550;2023-01-16T15:30:54;11.88;;;8.15;;
37065;SDS011;22981;43.080;25.550;2023-01-16T15:33:26;11.68;;;10.08;;
37065;SDS011;22981;43.080;25.550;2023-01-16T15:36:20;9.35;;;8.40;;
37065;SDS011;22981;43.080;25.550;2023-01-16T15:38:55;11.00;;;9.10;;
37065;SDS011;22981;43.080;25.550;2023-01-16T15:41:26;17.85;;;11.90;;
37065;SDS011;22981;43.080;25.550;2023-01-16T15:44:14;11.05;;;7.95;;
37065;SDS011;22981;43.080;25.550;2023-01-16T15:47:09;14.03;;;11.93;;
37065;SDS011;22981;43.080;25.550;2023-01-16T15:50:26;43.25;;;38.83;;
37065;SDS011;22981;43.080;25.550;2023-01-16T15:52:17;15.00;;;11.28;;
37065;SDS011;22981;43.080;25.550;2023-01-16T15:54:45;10.20;;;9.20;;
37065;SDS011;22981;43.080;25.550;2023-01-16T15:57:17;22.85;;;20.48;;
37065;SDS011;22981;43.080;25.550;2023-01-16T15:59:49;10.58;;;7.97;;
37065;SDS011;22981;43.080;25.550;2023-01-16T16:02:25;10.60;;;9.18;;
37065;SDS011;22981;43.080;25.550;2023-01-16T16:04:58;12.37;;;8.98;;
37065;SDS011;22981;43.080;25.550;2023-01-16T16:07:27;11.45;;;9.10;;
37065;SDS011;22981;43.080;25.550;2023-01-16T16:09:57;7.60;;;6.80;;
37065;SDS011;22981;43.080;25.550;2023-01-16T16:12:27;8.95;;;7.47;;
37065;SDS011;22981;43.080;25.550;2023-01-16T16:18:01;24.55;;;16.48;;
37065;SDS011;22981;43.080;25.550;2023-01-16T16:23:04;14.55;;;10.40;;
37065;SDS011;22981;43.080;25.550;2023-01-16T16:25:54;7.47;;;6.37;;
37065;SDS011;22981;43.080;25.550;2023-01-16T16:28:28;8.85;;;7.42;;
37065;SDS011;22981;43.080;25.550;2023-01-16T16:31:05;20.52;;;16.45;;
37065;SDS011;22981;43.080;25.550;2023-01-16T16:33:33;8.35;;;6.72;;
37065;SDS011;22981;43.080;25.550;2023-01-16T16:36:01;10.08;;;8.33;;
37065;SDS011;22981;43.080;25.550;2023-01-16T16:38:40;10.10;;;8.28;;
37065;SDS011;22981;43.080;25.550;2023-01-16T16:44:07;9.73;;;8.40;;
37065;SDS011;22981;43.080;25.550;2023-01-16T16:46:35;12.73;;;10.38;;
37065;SDS011;22981;43.080;25.550;2023-01-16T16:51:36;9.63;;;7.25;;
37065;SDS011;22981;43.080;25.550;2023-01-16T16:54:09;9.35;;;7.95;;
37065;SDS011;22981;43.080;25.550;2023-01-16T16:56:46;10.23;;;9.15;;
37065;SDS011;22981;43.080;25.550;2023-01-16T16:59:24;12.60;;;8.98;;
37065;SDS011;22981;43.080;25.550;2023-01-16T17:01:50;13.80;;;10.58;;
37065;SDS011;22981;43.080;25.550;2023-01-16T17:04:20;45.25;;;22.85;;
37065;SDS011;22981;43.080;25.550;2023-01-16T17:06:48;31.65;;;17.50;;
37065;SDS011;22981;43.080;25.550;2023-01-16T17:09:21;12.35;;;8.93;;
37065;SDS011;22981;43.080;25.550;2023-01-16T17:11:48;79.55;;;38.70;;
37065;SDS011;22981;43.080;25.550;2023-01-16T17:14:15;25.92;;;15.53;;
37065;SDS011;22981;43.080;25.550;2023-01-16T17:16:43;10.70;;;8.45;;